createdAt,value
2018-12-23T00:00:34.216Z,5.20
2018-12-23T00:03:06.036Z,5.30
2018-12-23T00:05:34.710Z,5.50
2018-12-23T00:08:03.217Z,6.17
2018-12-23T00:10:39.517Z,4.77
2018-12-23T00:13:08.067Z,5.07
2018-12-23T00:15:39.772Z,5.90
2018-12-23T00:18:09.131Z,5.73
2018-12-23T00:20:39.543Z,5.57
2018-12-23T00:23:10.199Z,5.47
2018-12-23T00:25:38.190Z,5.20
2018-12-23T00:28:07.215Z,4.83
2018-12-23T00:30:35.169Z,4.90
2018-12-23T00:33:07.802Z,4.47
2018-12-23T00:35:36.417Z,4.77
2018-12-23T00:38:05.444Z,4.77
2018-12-23T00:40:34.841Z,4.77
2018-12-23T00:43:04.392Z,4.40
2018-12-23T00:45:36.949Z,4.37
2018-12-23T00:48:06.712Z,4.30
2018-12-23T00:50:35.622Z,4.10
2018-12-23T00:53:06.337Z,3.60
2018-12-23T00:56:05.939Z,3.93
2018-12-23T00:58:58.843Z,3.67
2018-12-23T01:01:40.731Z,3.13
2018-12-23T01:04:12.467Z,3.57
2018-12-23T01:06:43.084Z,3.10
2018-12-23T01:09:10.999Z,4.10
2018-12-23T01:11:39.504Z,3.70
2018-12-23T01:14:08.410Z,3.30
2018-12-23T01:16:37.231Z,2.97
2018-12-23T01:19:05.203Z,3.10
2018-12-23T01:21:35.586Z,3.00
2018-12-23T01:24:07.341Z,3.33
2018-12-23T01:26:41.468Z,3.57
2018-12-23T01:31:42.731Z,3.23
2018-12-23T01:35:13.519Z,3.20
2018-12-23T01:37:42.179Z,3.03
2018-12-23T01:40:11.159Z,3.13
2018-12-23T01:42:40.324Z,3.40
2018-12-23T01:45:08.345Z,2.97
2018-12-23T01:47:36.223Z,3.40
2018-12-23T01:50:04.575Z,3.70
2018-12-23T01:52:34.578Z,3.60
2018-12-23T01:55:03.488Z,4.23
2018-12-23T01:57:31.497Z,3.80
2018-12-23T01:59:59.409Z,4.00
2018-12-23T02:02:27.214Z,3.73
2018-12-23T02:05:03.247Z,4.20
2018-12-23T02:07:31.466Z,3.83
2018-12-23T02:09:59.525Z,3.60
2018-12-23T02:12:28.122Z,3.50
2018-12-23T02:14:55.997Z,3.40
2018-12-23T02:17:40.938Z,3.20
2018-12-23T02:20:08.885Z,3.20
2018-12-23T02:22:36.795Z,4.00
2018-12-23T02:25:05.876Z,4.13
2018-12-23T02:27:33.699Z,4.10
2018-12-23T02:30:02.772Z,3.70
2018-12-23T02:32:30.773Z,3.43
2018-12-23T02:34:58.588Z,3.80
2018-12-23T02:37:26.778Z,4.13
2018-12-23T02:39:54.681Z,3.23
2018-12-23T02:42:23.826Z,3.90
2018-12-23T02:44:52.354Z,4.03
2018-12-23T02:47:20.187Z,3.87
2018-12-23T02:49:48.134Z,3.27
2018-12-23T02:52:16.008Z,2.80
2018-12-23T02:54:50.826Z,3.27
2018-12-23T02:57:24.532Z,3.03
2018-12-23T02:59:52.456Z,2.73
2018-12-23T03:02:20.346Z,3.13
2018-12-23T03:04:48.771Z,3.50
2018-12-23T03:07:17.706Z,3.13
2018-12-23T03:09:45.580Z,3.57
2018-12-23T03:12:14.375Z,3.40
2018-12-23T03:14:44.644Z,3.00
2018-12-23T03:17:13.072Z,2.77
2018-12-23T03:19:40.913Z,3.03
2018-12-23T03:22:08.836Z,2.83
2018-12-23T03:24:36.776Z,3.07
2018-12-23T03:27:04.837Z,2.87
2018-12-23T03:29:32.762Z,3.03
2018-12-23T03:32:01.028Z,3.20
2018-12-23T03:34:29.050Z,3.27
2018-12-23T03:36:56.984Z,3.03
2018-12-23T03:39:24.909Z,3.23
2018-12-23T03:41:53.160Z,3.07
2018-12-23T03:44:21.916Z,3.10
2018-12-23T03:46:49.825Z,4.00
2018-12-23T03:49:17.752Z,3.47
2018-12-23T03:51:46.824Z,3.27
2018-12-23T03:54:15.131Z,3.33
2018-12-23T03:56:48.062Z,2.70
2018-12-23T03:59:15.991Z,3.53
2018-12-23T04:01:44.457Z,2.93
2018-12-23T04:04:12.292Z,2.93
2018-12-23T04:06:40.153Z,3.40
2018-12-23T04:09:11.997Z,4.20
2018-12-23T04:11:40.022Z,3.37
2018-12-23T04:14:07.992Z,3.13
2018-12-23T04:16:39.727Z,3.10
2018-12-23T04:19:07.636Z,3.97
2018-12-23T04:21:36.768Z,2.90
2018-12-23T04:24:04.620Z,2.93
2018-12-23T04:26:38.298Z,2.77
2018-12-23T04:29:12.323Z,3.20
2018-12-23T04:31:40.511Z,3.70
2018-12-23T04:34:08.575Z,3.17
2018-12-23T04:36:40.290Z,2.87
2018-12-23T04:39:08.139Z,2.90
2018-12-23T04:41:36.033Z,3.67
2018-12-23T04:44:05.204Z,3.00
2018-12-23T04:46:34.287Z,3.00
2018-12-23T04:49:08.245Z,3.20
2018-12-23T04:54:33.353Z,3.10
2018-12-23T04:57:01.803Z,2.90
2018-12-23T04:59:29.618Z,2.77
2018-12-23T05:01:57.477Z,3.27
2018-12-23T05:04:25.342Z,3.23
2018-12-23T05:06:58.878Z,3.10
2018-12-23T05:09:27.224Z,2.70
2018-12-23T05:11:55.117Z,2.73
2018-12-23T05:14:23.646Z,3.60
2018-12-23T05:16:52.569Z,3.20
2018-12-23T05:19:22.594Z,2.80
2018-12-23T05:21:51.284Z,2.77
2018-12-23T05:24:25.059Z,2.77
2018-12-23T05:26:56.348Z,2.60
2018-12-23T05:29:24.280Z,3.17
2018-12-23T05:31:57.654Z,3.33
2018-12-23T05:34:29.003Z,2.50
2018-12-23T05:36:57.774Z,3.60
2018-12-23T05:39:25.630Z,3.27
2018-12-23T05:41:54.193Z,3.17
2018-12-23T05:44:22.108Z,3.43
2018-12-23T05:46:50.500Z,3.20
2018-12-23T05:49:18.358Z,2.77
2018-12-23T05:51:50.157Z,3.10
2018-12-23T05:54:19.085Z,2.97
2018-12-23T05:56:47.075Z,3.37
2018-12-23T05:59:16.453Z,3.13
2018-12-23T06:01:44.401Z,3.10
2018-12-23T06:04:17.125Z,3.20
2018-12-23T06:06:45.244Z,2.70
2018-12-23T06:09:13.295Z,2.67
2018-12-23T06:11:41.223Z,3.40
2018-12-23T06:14:10.111Z,3.10
2018-12-23T06:16:38.013Z,2.70
2018-12-23T06:19:06.003Z,3.27
2018-12-23T06:21:33.888Z,3.10
2018-12-23T06:24:04.180Z,2.60
2018-12-23T06:26:32.080Z,2.97
2018-12-23T06:29:00.061Z,3.00
2018-12-23T06:31:30.213Z,3.30
2018-12-23T06:33:58.326Z,3.20
2018-12-23T06:36:26.324Z,3.20
2018-12-23T06:38:54.241Z,2.80
2018-12-23T06:41:22.786Z,3.07
2018-12-23T06:43:50.663Z,3.20
2018-12-23T06:46:18.807Z,3.67
2018-12-23T06:48:46.878Z,3.13
2018-12-23T06:51:14.748Z,3.03
2018-12-23T06:53:42.629Z,3.77
2018-12-23T06:56:11.546Z,3.20
2018-12-23T06:58:40.802Z,3.73
2018-12-23T07:01:08.786Z,3.37
2018-12-23T07:03:36.997Z,3.10
2018-12-23T07:06:04.947Z,3.20
2018-12-23T07:08:33.809Z,3.60
2018-12-23T07:11:02.503Z,2.93
2018-12-23T07:13:30.375Z,3.50
2018-12-23T07:15:59.678Z,3.10
2018-12-23T07:18:27.730Z,3.37
2018-12-23T07:20:56.244Z,2.60
2018-12-23T07:23:24.419Z,3.03
2018-12-23T07:25:52.274Z,3.47
2018-12-23T07:28:20.177Z,3.10
2018-12-23T07:30:48.050Z,3.53
2018-12-23T07:33:17.468Z,3.90
2018-12-23T07:35:55.940Z,3.67
2018-12-23T07:38:24.099Z,3.40
2018-12-23T07:40:54.666Z,3.53
2018-12-23T07:43:25.504Z,2.93
2018-12-23T07:45:53.906Z,4.10
2018-12-23T07:48:22.026Z,4.40
2018-12-23T07:50:53.800Z,3.73
2018-12-23T07:53:23.029Z,3.20
2018-12-23T07:55:52.306Z,3.37
2018-12-23T07:58:21.532Z,3.20
2018-12-23T08:00:49.417Z,4.00
2018-12-23T08:03:19.079Z,3.57
2018-12-23T08:05:47.574Z,4.57
2018-12-23T08:08:15.743Z,4.23
2018-12-23T08:10:43.618Z,4.23
2018-12-23T08:13:11.851Z,3.67
2018-12-23T08:15:40.117Z,3.50
2018-12-23T08:18:09.147Z,4.13
2018-12-23T08:20:39.028Z,3.57
2018-12-23T08:23:07.284Z,4.20
2018-12-23T08:25:36.348Z,3.50
2018-12-23T08:28:04.864Z,3.70
2018-12-23T08:30:33.623Z,3.70
2018-12-23T08:33:01.515Z,4.10
2018-12-23T08:35:31.725Z,3.53
2018-12-23T08:38:00.707Z,3.87
2018-12-23T08:40:28.763Z,3.93
2018-12-23T08:46:39.054Z,3.70
2018-12-23T08:49:07.365Z,4.13
2018-12-23T08:51:36.234Z,3.67
2018-12-23T08:54:04.197Z,3.50
2018-12-23T08:56:33.222Z,3.70
2018-12-23T08:59:03.393Z,3.70
2018-12-23T09:01:32.058Z,4.00
2018-12-23T09:04:00.779Z,3.63
2018-12-23T09:06:29.877Z,3.60
2018-12-23T09:09:00.368Z,4.17
2018-12-23T09:11:50.271Z,4.30
2018-12-23T09:14:32.819Z,3.90
2018-12-23T09:17:01.325Z,3.90
2018-12-23T09:19:29.914Z,4.33
2018-12-23T09:25:41.176Z,4.17
2018-12-23T09:41:11.121Z,3.17
2018-12-23T11:14:10.521Z,2.70
2018-12-23T11:54:15.772Z,2.97
2018-12-23T11:56:52.233Z,2.90
2018-12-23T11:59:22.984Z,3.40
2018-12-23T12:01:53.154Z,2.97
2018-12-23T12:04:21.928Z,2.90
2018-12-23T12:06:50.037Z,2.63
2018-12-23T12:09:18.112Z,2.70
2018-12-23T12:11:47.188Z,3.00
2018-12-23T12:14:30.597Z,2.97
2018-12-23T12:17:11.850Z,3.10
2018-12-23T12:19:44.100Z,3.40
2018-12-23T12:22:12.861Z,3.07
2018-12-23T12:24:40.877Z,3.53
2018-12-23T12:27:09.390Z,3.03
2018-12-23T12:29:37.435Z,3.10
2018-12-23T12:32:08.732Z,3.33
2018-12-23T12:34:44.205Z,4.10
2018-12-23T12:37:16.222Z,4.03
2018-12-23T12:39:45.007Z,3.20
2018-12-23T12:42:13.085Z,3.70
2018-12-23T12:44:41.419Z,4.03
2018-12-23T12:47:09.543Z,3.63
2018-12-23T12:49:39.605Z,3.83
2018-12-23T12:52:11.702Z,4.30
2018-12-23T12:54:39.787Z,3.30
2018-12-23T12:57:07.851Z,3.50
2018-12-23T12:59:36.000Z,3.30
2018-12-23T13:02:04.273Z,4.17
2018-12-23T13:04:32.701Z,3.67
2018-12-23T13:07:02.379Z,4.03
2018-12-23T13:09:36.358Z,3.77
2018-12-23T13:12:04.864Z,4.20
2018-12-23T13:14:33.058Z,4.10
2018-12-23T13:17:01.583Z,3.50
2018-12-23T13:19:29.693Z,3.53
2018-12-23T13:22:00.110Z,4.60
2018-12-23T13:24:30.501Z,4.27
2018-12-23T13:27:01.862Z,4.60
2018-12-23T13:29:34.832Z,5.00
2018-12-23T13:32:02.869Z,4.13
2018-12-23T13:34:30.975Z,3.77
2018-12-23T13:36:59.255Z,4.20
2018-12-23T13:39:29.014Z,4.07
2018-12-23T13:42:44.455Z,4.33
2018-12-23T13:46:03.883Z,5.40
2018-12-23T13:49:12.383Z,4.00
2018-12-23T13:52:18.931Z,4.37
2018-12-23T13:55:34.129Z,4.50
2018-12-23T13:58:29.610Z,4.57
2018-12-23T14:01:44.041Z,4.77
2018-12-23T14:04:40.057Z,4.33
2018-12-23T14:07:56.633Z,4.70
2018-12-23T14:11:05.276Z,4.70
2018-12-23T14:13:35.056Z,5.20
2018-12-23T14:16:03.244Z,5.23
2018-12-23T14:18:31.495Z,4.63
2018-12-23T14:20:59.661Z,4.50
2018-12-23T14:23:27.862Z,4.93
2018-12-23T14:25:55.868Z,5.60
2018-12-23T14:28:25.931Z,6.37
2018-12-23T14:30:54.339Z,6.03
2018-12-23T14:33:22.477Z,6.27
2018-12-23T14:35:51.312Z,5.60
2018-12-23T14:38:21.295Z,5.80
2018-12-23T14:40:51.125Z,6.70
2018-12-23T14:43:23.820Z,6.17
2018-12-23T14:45:55.667Z,5.90
2018-12-23T14:48:24.673Z,6.27
2018-12-23T14:50:53.080Z,5.60
2018-12-23T14:53:21.327Z,5.77
2018-12-23T14:55:51.770Z,5.37
2018-12-23T14:58:23.943Z,5.47
2018-12-23T15:00:51.945Z,5.03
2018-12-23T15:03:20.011Z,4.77
2018-12-23T15:06:14.803Z,3.87
2018-12-23T15:08:45.846Z,3.60
2018-12-23T15:11:15.963Z,3.43
2018-12-23T15:13:45.053Z,3.33
2018-12-23T15:16:41.452Z,3.53
2018-12-23T15:19:14.260Z,3.23
2018-12-23T15:21:46.462Z,2.90
2018-12-23T15:24:14.612Z,3.20
2018-12-23T15:26:45.668Z,3.30
2018-12-23T15:29:16.967Z,3.57
2018-12-23T15:31:45.177Z,3.07
2018-12-23T15:34:15.181Z,3.00
2018-12-23T15:36:43.529Z,3.13
2018-12-23T15:39:14.918Z,3.83
2018-12-23T15:41:43.211Z,3.40
2018-12-23T15:44:15.318Z,3.47
2018-12-23T15:46:43.438Z,3.10
2018-12-23T15:49:11.920Z,4.00
2018-12-23T15:51:40.184Z,3.53
2018-12-23T15:54:08.675Z,3.03
2018-12-23T15:56:37.144Z,3.00
2018-12-23T15:59:05.217Z,3.10
2018-12-23T16:01:36.238Z,3.87
2018-12-23T16:04:04.649Z,3.57
2018-12-23T16:06:36.023Z,3.70
2018-12-23T16:09:09.806Z,4.23
2018-12-23T16:11:37.862Z,4.13
2018-12-23T16:14:05.963Z,3.70
2018-12-23T16:16:34.121Z,3.90
2018-12-23T16:19:03.399Z,4.20
2018-12-23T16:21:31.447Z,3.93
2018-12-23T16:24:02.628Z,4.37
2018-12-23T16:26:30.740Z,4.70
2018-12-23T16:28:58.857Z,4.47
2018-12-23T16:31:27.189Z,5.47
2018-12-23T16:34:04.584Z,5.70
2018-12-23T16:36:35.738Z,5.30
2018-12-23T16:39:06.342Z,5.57
2018-12-23T16:41:34.344Z,6.10
2018-12-23T16:44:02.530Z,6.33
2018-12-23T16:46:30.576Z,7.90
2018-12-23T16:49:05.374Z,6.57
2018-12-23T16:51:39.029Z,5.77
2018-12-23T16:54:12.093Z,5.87
2018-12-23T16:56:40.319Z,6.63
2018-12-23T16:59:11.316Z,6.53
2018-12-23T17:01:39.767Z,6.80
2018-12-23T17:04:09.135Z,6.13
2018-12-23T17:06:46.109Z,7.00
2018-12-23T17:09:17.500Z,6.90
2018-12-23T17:11:45.711Z,5.97
2018-12-23T17:14:14.343Z,6.23
2018-12-23T17:16:43.191Z,6.27
2018-12-23T17:19:18.924Z,5.83
2018-12-23T17:21:50.416Z,5.97
2018-12-23T17:24:21.367Z,6.20
2018-12-23T17:26:49.502Z,5.83
2018-12-23T17:29:28.926Z,6.13
2018-12-23T17:32:02.110Z,5.93
2018-12-23T17:34:37.918Z,6.83
2018-12-23T17:37:07.804Z,6.47
2018-12-23T17:39:39.360Z,6.77
2018-12-23T17:42:08.986Z,5.50
2018-12-23T17:44:37.789Z,5.30
2018-12-23T17:47:08.460Z,6.03
2018-12-23T17:49:36.733Z,6.00
2018-12-23T17:52:05.183Z,5.33
2018-12-23T17:54:33.518Z,5.27
2018-12-23T17:57:01.897Z,4.87
2018-12-23T17:59:30.278Z,5.23
2018-12-23T18:01:58.407Z,5.40
2018-12-23T18:04:33.059Z,4.97
2018-12-23T18:07:03.936Z,4.67
2018-12-23T18:09:32.465Z,5.80
2018-12-23T18:12:01.065Z,4.93
2018-12-23T18:14:29.485Z,4.93
2018-12-23T18:16:59.059Z,4.93
2018-12-23T18:19:27.616Z,5.30
2018-12-23T18:21:55.646Z,5.27
2018-12-23T18:24:24.130Z,5.13
2018-12-23T18:26:58.379Z,3.80
2018-12-23T18:29:39.808Z,3.87
2018-12-23T18:32:14.199Z,4.30
2018-12-23T18:34:43.686Z,4.33
2018-12-23T18:37:16.013Z,5.10
2018-12-23T18:39:44.790Z,3.53
2018-12-23T18:42:18.050Z,4.30
2018-12-23T18:44:47.913Z,4.03
2018-12-23T18:47:16.190Z,4.10
2018-12-23T18:49:44.230Z,3.50
2018-12-23T18:52:12.407Z,3.47
2018-12-23T18:54:40.670Z,3.40
2018-12-23T18:57:10.882Z,3.80
2018-12-23T18:59:43.881Z,3.47
2018-12-23T19:02:21.074Z,3.57
2018-12-23T19:04:49.674Z,3.60
2018-12-23T19:07:17.683Z,3.77
2018-12-23T19:10:41.757Z,3.60
2018-12-23T19:13:37.220Z,3.60
2018-12-23T19:16:48.456Z,3.33
2018-12-23T19:19:43.315Z,3.60
2018-12-23T19:22:55.516Z,3.30
2018-12-23T19:26:26.153Z,3.80
2018-12-23T19:29:05.299Z,3.17
2018-12-23T19:32:27.654Z,3.10
2018-12-23T19:35:36.813Z,3.00
2018-12-23T19:38:45.709Z,3.70
2018-12-23T19:42:13.527Z,3.67
2018-12-23T19:45:09.819Z,3.73
2018-12-23T19:48:06.496Z,4.03
2018-12-23T19:51:03.950Z,3.37
2018-12-23T19:53:57.285Z,3.87
2018-12-23T19:57:11.911Z,3.33
2018-12-23T20:00:10.578Z,3.13
2018-12-23T20:03:24.036Z,2.93
2018-12-23T20:06:38.020Z,2.77
2018-12-23T20:09:28.924Z,3.27
2018-12-23T20:12:45.817Z,3.30
2018-12-23T20:16:04.605Z,3.30
2018-12-23T20:18:55.422Z,2.77
2018-12-23T20:22:26.718Z,2.87
2018-12-23T20:25:45.575Z,3.30
2018-12-23T20:28:58.331Z,3.13
2018-12-23T20:32:12.367Z,7.03
2018-12-23T20:35:31.548Z,5.40
2018-12-23T20:38:40.065Z,5.70
2018-12-23T20:41:44.574Z,5.03
2018-12-23T20:44:59.565Z,4.63
2018-12-23T20:48:11.453Z,6.97
2018-12-23T20:51:22.366Z,4.90
2018-12-23T20:54:17.512Z,5.60
2018-12-23T20:57:21.934Z,5.47
2018-12-23T21:00:19.555Z,6.27
2018-12-23T21:03:38.392Z,7.17
2018-12-23T21:06:48.120Z,7.00
2018-12-23T21:09:42.552Z,7.37
2018-12-23T21:12:56.914Z,7.80
2018-12-23T21:15:53.841Z,5.80
2018-12-23T21:19:14.141Z,5.97
2018-12-23T21:22:17.551Z,5.43
2018-12-23T21:25:11.637Z,5.63
2018-12-23T21:28:17.714Z,6.10
2018-12-23T21:31:28.640Z,5.20
2018-12-23T21:35:05.642Z,4.70
2018-12-23T21:38:12.203Z,4.57
2018-12-23T21:41:24.442Z,4.90
2018-12-23T21:44:34.849Z,5.13
2018-12-23T21:47:27.112Z,4.23
2018-12-23T21:50:44.905Z,5.60
2018-12-23T21:53:55.551Z,5.47
2018-12-23T21:56:58.837Z,5.70
2018-12-23T21:59:42.531Z,6.10
2018-12-23T22:03:04.264Z,6.53
2018-12-23T22:06:17.773Z,5.00
2018-12-23T22:09:22.078Z,4.40
2018-12-23T22:12:36.039Z,4.50
2018-12-23T22:15:14.669Z,3.30
2018-12-23T22:17:43.083Z,2.77
2018-12-23T22:20:11.119Z,2.90
2018-12-23T22:22:39.463Z,3.10
2018-12-23T22:25:12.376Z,2.50
2018-12-23T22:27:41.709Z,2.50
2018-12-23T22:30:09.756Z,2.10
2018-12-23T22:32:38.655Z,2.30
2018-12-23T22:35:06.832Z,1.80
2018-12-23T22:37:36.680Z,1.80
2018-12-23T22:40:05.778Z,1.77
2018-12-23T22:42:34.020Z,1.43
2018-12-23T22:45:02.028Z,1.57
2018-12-23T22:47:33.407Z,1.30
2018-12-23T22:50:01.729Z,1.13
2018-12-23T22:52:30.267Z,1.00
2018-12-23T22:55:16.360Z,0.90
2018-12-23T22:57:44.413Z,1.10
2018-12-23T23:00:17.938Z,1.00
2018-12-23T23:02:46.236Z,1.60
2018-12-23T23:05:15.858Z,1.07
2018-12-23T23:07:44.300Z,1.30
2018-12-23T23:10:12.734Z,1.10
2018-12-23T23:12:40.825Z,1.30
2018-12-23T23:15:12.228Z,1.20
2018-12-23T23:17:40.285Z,1.50
2018-12-23T23:20:08.586Z,1.70
2018-12-23T23:22:36.691Z,1.70
2018-12-23T23:25:05.219Z,1.77
2018-12-23T23:27:34.713Z,1.60
2018-12-23T23:30:03.724Z,1.60
2018-12-23T23:32:33.926Z,1.47
2018-12-23T23:35:04.622Z,1.60
2018-12-23T23:37:33.278Z,1.37
2018-12-23T23:40:06.083Z,1.57
2018-12-23T23:42:34.113Z,1.80
2018-12-23T23:45:02.380Z,1.47
2018-12-23T23:47:30.449Z,1.53
2018-12-23T23:49:58.713Z,1.73
2018-12-23T23:52:27.223Z,1.60
2018-12-23T23:54:55.286Z,1.40
2018-12-23T23:57:25.605Z,1.20
2018-12-23T23:59:53.850Z,1.30
